createdAt,value
2022-10-19T00:01:41.051Z,35.20
2022-10-19T00:04:26.051Z,32.67
2022-10-19T00:07:10.936Z,33.72
2022-10-19T00:09:55.977Z,34.55
2022-10-19T00:12:40.913Z,31.95
2022-10-19T00:15:26.194Z,30.75
2022-10-19T00:18:11.195Z,34.67
2022-10-19T00:21:04.707Z,35.78
2022-10-19T00:23:49.724Z,30.60
2022-10-19T00:26:34.969Z,28.27
2022-10-19T00:29:19.765Z,31.58
2022-10-19T00:32:05.178Z,30.90
2022-10-19T00:34:50.189Z,27.40
2022-10-19T00:37:35.218Z,29.75
2022-10-19T00:40:20.127Z,31.20
2022-10-19T00:43:13.583Z,31.10
2022-10-19T00:45:58.862Z,32.35
2022-10-19T00:48:44.024Z,28.40
2022-10-19T00:51:30.662Z,32.67
2022-10-19T00:54:17.441Z,27.40
2022-10-19T00:57:04.697Z,28.23
2022-10-19T00:59:50.488Z,29.92
2022-10-19T01:02:36.069Z,30.05
2022-10-19T01:05:21.234Z,29.75
2022-10-19T01:08:09.736Z,28.75
2022-10-19T01:11:31.709Z,34.78
2022-10-19T01:14:34.830Z,35.30
2022-10-19T01:17:44.009Z,26.77
2022-10-19T01:21:05.849Z,24.25
2022-10-19T01:24:18.177Z,26.98
2022-10-19T01:27:02.958Z,27.75
2022-10-19T01:29:59.973Z,27.20
2022-10-19T01:36:09.825Z,31.88
2022-10-19T01:39:16.228Z,30.30
2022-10-19T01:42:14.242Z,31.65
2022-10-19T01:45:02.326Z,27.15
2022-10-19T01:48:06.478Z,27.25
2022-10-19T01:50:55.262Z,29.98
2022-10-19T01:53:48.744Z,31.13
2022-10-19T01:56:35.461Z,28.08
2022-10-19T01:59:21.932Z,25.98
2022-10-19T02:02:09.737Z,29.65
2022-10-19T02:04:57.345Z,26.05
2022-10-19T02:07:46.161Z,31.27
2022-10-19T02:10:34.616Z,31.25
2022-10-19T02:13:21.108Z,28.45
2022-10-19T02:16:13.899Z,31.05
2022-10-19T02:19:00.396Z,32.40
2022-10-19T02:21:45.905Z,31.95
2022-10-19T02:24:30.653Z,32.65
2022-10-19T02:27:16.698Z,26.70
2022-10-19T02:30:02.276Z,30.52
2022-10-19T02:32:47.521Z,31.08
2022-10-19T02:35:32.697Z,27.08
2022-10-19T02:38:21.784Z,26.63
2022-10-19T02:41:09.336Z,25.92
2022-10-19T02:43:59.783Z,21.95
2022-10-19T02:46:51.164Z,22.33
2022-10-19T02:49:37.120Z,15.98
2022-10-19T02:52:21.860Z,17.60
2022-10-19T02:55:08.312Z,11.20
2022-10-19T02:57:53.206Z,10.73
2022-10-19T03:00:38.062Z,9.10
2022-10-19T03:03:22.893Z,12.65
2022-10-19T03:06:07.864Z,7.70
2022-10-19T03:08:52.877Z,4.65
2022-10-19T03:11:37.793Z,7.40
2022-10-19T03:14:22.900Z,4.78
2022-10-19T03:17:08.116Z,5.78
2022-10-19T03:19:53.239Z,3.65
2022-10-19T03:22:38.350Z,3.65
2022-10-19T03:25:23.235Z,2.80
2022-10-19T03:28:09.747Z,3.10
2022-10-19T03:30:54.665Z,4.13
2022-10-19T03:33:40.009Z,2.13
2022-10-19T03:36:27.245Z,2.83
2022-10-19T03:39:14.038Z,1.80
2022-10-19T03:41:59.051Z,1.70
2022-10-19T03:44:44.029Z,2.55
2022-10-19T03:47:29.003Z,1.10
2022-10-19T03:50:16.342Z,1.35
2022-10-19T03:53:00.792Z,2.42
2022-10-19T03:55:45.946Z,1.52
2022-10-19T03:58:34.189Z,2.78
2022-10-19T04:01:22.245Z,0.88
2022-10-19T04:04:11.958Z,1.52
2022-10-19T04:06:56.714Z,1.45
2022-10-19T04:09:41.619Z,2.30
2022-10-19T04:12:26.596Z,3.65
2022-10-19T04:15:11.509Z,2.90
2022-10-19T04:17:56.567Z,2.00
2022-10-19T04:20:43.229Z,1.80
2022-10-19T04:23:30.190Z,2.05
2022-10-19T04:26:15.339Z,2.80
2022-10-19T04:29:00.871Z,1.42
2022-10-19T04:31:48.726Z,2.30
2022-10-19T04:34:36.352Z,1.52
2022-10-19T04:38:01.904Z,2.72
2022-10-19T04:40:46.649Z,1.95
2022-10-19T04:43:31.841Z,3.65
2022-10-19T04:46:18.695Z,2.03
2022-10-19T04:49:05.564Z,1.80
2022-10-19T04:51:50.647Z,3.40
2022-10-19T04:54:35.600Z,1.88
2022-10-19T04:57:20.577Z,1.95
2022-10-19T05:00:06.419Z,1.50
2022-10-19T05:02:51.225Z,2.97
2022-10-19T05:05:36.415Z,1.73
2022-10-19T05:08:21.424Z,1.02
2022-10-19T05:11:09.284Z,1.70
2022-10-19T05:13:56.046Z,2.45
2022-10-19T05:16:41.243Z,3.00
2022-10-19T05:19:26.281Z,1.83
2022-10-19T05:22:11.319Z,1.80
2022-10-19T05:24:58.165Z,5.43
2022-10-19T05:27:43.267Z,6.95
2022-10-19T05:30:28.326Z,7.50
2022-10-19T05:33:13.453Z,6.78
2022-10-19T05:36:08.861Z,8.32
2022-10-19T05:38:56.648Z,6.03
2022-10-19T05:41:46.354Z,3.75
2022-10-19T05:44:31.059Z,3.85
2022-10-19T05:47:15.907Z,3.30
2022-10-19T05:50:00.951Z,2.22
2022-10-19T05:52:45.790Z,4.13
2022-10-19T05:55:34.702Z,3.38
2022-10-19T05:58:19.787Z,2.22
2022-10-19T06:01:05.075Z,2.10
2022-10-19T06:03:55.616Z,4.55
2022-10-19T06:06:42.104Z,4.47
2022-10-19T06:09:27.225Z,3.40
2022-10-19T06:12:12.342Z,4.82
2022-10-19T06:14:57.335Z,3.33
2022-10-19T06:17:42.233Z,4.60
2022-10-19T06:20:29.886Z,2.88
2022-10-19T06:23:14.468Z,6.32
2022-10-19T06:26:06.343Z,3.72
2022-10-19T06:28:55.616Z,4.88
2022-10-19T06:31:40.560Z,3.75
2022-10-19T06:34:25.937Z,6.03
2022-10-19T06:37:11.200Z,4.93
2022-10-19T06:39:56.162Z,7.57
2022-10-19T06:42:41.278Z,4.82
2022-10-19T06:45:26.383Z,7.32
2022-10-19T06:48:11.253Z,5.28
2022-10-19T06:51:33.592Z,9.82
2022-10-19T06:57:02.846Z,6.38
2022-10-19T06:59:50.168Z,6.28
2022-10-19T07:02:37.637Z,4.47
2022-10-19T07:05:22.744Z,8.73
2022-10-19T07:08:07.814Z,7.22
2022-10-19T07:10:55.050Z,6.25
2022-10-19T07:13:39.985Z,7.40
2022-10-19T07:16:24.697Z,6.15
2022-10-19T07:19:09.908Z,8.05
2022-10-19T07:21:54.615Z,6.38
2022-10-19T07:24:39.725Z,6.45
2022-10-19T07:27:24.746Z,8.18
2022-10-19T07:30:10.045Z,7.00
2022-10-19T07:32:54.797Z,7.97
2022-10-19T07:35:39.723Z,7.60
2022-10-19T07:38:24.724Z,6.70
2022-10-19T07:41:17.484Z,7.95
2022-10-19T07:44:02.703Z,8.43
2022-10-19T07:46:47.606Z,11.40
2022-10-19T07:49:32.676Z,10.75
2022-10-19T07:52:17.523Z,9.85
2022-10-19T07:55:02.598Z,7.18
2022-10-19T07:57:48.606Z,8.32
2022-10-19T08:00:33.532Z,7.35
2022-10-19T08:04:13.824Z,9.35
2022-10-19T08:06:24.238Z,6.38
2022-10-19T08:09:11.326Z,6.50
2022-10-19T08:12:00.452Z,5.95
2022-10-19T08:14:47.334Z,7.97
2022-10-19T08:17:35.875Z,6.72
2022-10-19T08:20:20.805Z,6.82
2022-10-19T08:23:06.054Z,6.25
2022-10-19T08:25:50.935Z,6.78
2022-10-19T08:28:35.887Z,4.75
2022-10-19T08:31:22.258Z,5.75
2022-10-19T08:34:08.069Z,6.50
2022-10-19T08:36:52.933Z,6.25
2022-10-19T08:39:38.044Z,7.03
2022-10-19T08:42:33.178Z,6.55
2022-10-19T08:45:25.059Z,5.97
2022-10-19T08:48:15.808Z,3.47
2022-10-19T08:51:00.995Z,6.82
2022-10-19T08:53:54.050Z,5.60
2022-10-19T08:57:02.396Z,7.43
2022-10-19T09:00:17.045Z,5.80
2022-10-19T09:03:56.854Z,6.40
2022-10-19T09:06:53.494Z,6.88
2022-10-19T09:09:43.934Z,4.13
2022-10-19T09:12:44.488Z,5.70
2022-10-19T09:15:47.603Z,5.43
2022-10-19T09:18:33.963Z,6.78
2022-10-19T09:21:47.683Z,6.43
2022-10-19T09:25:02.724Z,5.40
2022-10-19T09:30:47.836Z,5.03
2022-10-19T09:33:37.637Z,5.00
2022-10-19T09:36:39.225Z,4.80
2022-10-19T09:39:30.355Z,5.20
2022-10-19T09:42:28.787Z,6.63
2022-10-19T09:45:40.325Z,5.50
2022-10-19T09:48:51.358Z,4.10
2022-10-19T09:51:52.320Z,5.15
2022-10-19T09:54:38.941Z,6.45
2022-10-19T09:57:25.497Z,4.85
2022-10-19T10:00:22.924Z,5.50
2022-10-19T10:03:30.409Z,6.55
2022-10-19T10:06:17.656Z,4.05
2022-10-19T10:09:03.095Z,4.03
2022-10-19T10:11:50.258Z,6.10
2022-10-19T10:14:39.522Z,4.72
2022-10-19T10:17:30.278Z,6.68
2022-10-19T10:20:27.255Z,5.57
2022-10-19T10:23:23.435Z,5.28
2022-10-19T10:26:18.697Z,7.03
2022-10-19T10:29:16.770Z,5.68
2022-10-19T10:32:11.640Z,4.63
2022-10-19T10:35:02.532Z,5.35
2022-10-19T10:37:48.116Z,7.13
2022-10-19T10:40:33.137Z,6.15
2022-10-19T10:43:22.087Z,8.88
2022-10-19T10:46:25.704Z,13.07
2022-10-19T10:49:33.554Z,6.43
2022-10-19T10:52:19.527Z,7.55
2022-10-19T10:55:10.659Z,6.65
2022-10-19T10:58:25.611Z,8.48
2022-10-19T11:01:27.897Z,7.20
2022-10-19T11:04:22.186Z,7.20
2022-10-19T11:07:26.384Z,4.90
2022-10-19T11:10:30.748Z,5.97
2022-10-19T11:13:56.261Z,5.93
2022-10-19T11:16:47.510Z,6.05
2022-10-19T11:19:40.536Z,7.20
2022-10-19T11:22:43.619Z,7.82
2022-10-19T11:25:49.076Z,6.45
2022-10-19T11:28:40.673Z,6.95
2022-10-19T11:31:45.551Z,5.85
2022-10-19T11:35:06.091Z,8.10
2022-10-19T11:38:22.595Z,6.10
2022-10-19T11:41:19.805Z,7.72
2022-10-19T11:44:11.937Z,8.57
2022-10-19T11:47:20.090Z,4.85
2022-10-19T11:50:32.244Z,8.55
2022-10-19T11:53:20.508Z,10.75
2022-10-19T11:56:07.979Z,6.05
2022-10-19T11:59:22.149Z,5.63
2022-10-19T12:02:25.163Z,6.50
2022-10-19T12:05:47.146Z,4.85
2022-10-19T12:08:56.090Z,6.15
2022-10-19T12:12:18.946Z,9.35
2022-10-19T12:15:23.323Z,6.97
2022-10-19T12:18:46.148Z,6.03
2022-10-19T12:21:35.877Z,5.50
2022-10-19T12:24:58.499Z,7.75
2022-10-19T12:27:46.913Z,11.00
2022-10-19T12:31:09.411Z,9.38
2022-10-19T12:34:01.358Z,7.00
2022-10-19T12:37:23.790Z,6.50
2022-10-19T12:40:26.378Z,12.50
2022-10-19T12:43:48.826Z,10.10
2022-10-19T12:46:36.434Z,9.50
2022-10-19T12:49:59.197Z,10.07
2022-10-19T12:52:48.231Z,10.38
2022-10-19T12:56:10.406Z,9.00
2022-10-19T12:59:00.953Z,10.10
2022-10-19T13:04:53.468Z,9.52
2022-10-19T13:08:15.581Z,13.52
2022-10-19T13:11:15.599Z,11.77
2022-10-19T13:14:37.816Z,9.52
2022-10-19T13:17:46.163Z,9.15
2022-10-19T13:21:08.586Z,8.15
2022-10-19T13:24:25.576Z,6.53
2022-10-19T13:27:47.852Z,8.13
2022-10-19T13:30:38.578Z,12.15
2022-10-19T13:34:01.314Z,8.35
2022-10-19T13:37:01.469Z,9.02
2022-10-19T13:40:24.932Z,10.48
2022-10-19T13:43:25.744Z,6.82
2022-10-19T13:46:51.104Z,7.65
2022-10-19T13:50:07.350Z,8.38
2022-10-19T13:53:29.502Z,6.95
2022-10-19T13:56:44.730Z,8.13
2022-10-19T14:00:07.300Z,7.72
2022-10-19T14:03:30.858Z,7.85
2022-10-19T14:06:44.362Z,9.85
2022-10-19T14:10:07.719Z,8.75
2022-10-19T14:12:52.965Z,7.05
2022-10-19T14:16:15.258Z,8.82
2022-10-19T14:19:00.046Z,9.18
2022-10-19T14:22:22.334Z,10.57
2022-10-19T14:40:26.800Z,10.85
2022-10-19T14:43:24.761Z,14.18
2022-10-19T14:46:15.867Z,11.85
2022-10-19T14:49:03.249Z,9.20
2022-10-19T14:52:00.732Z,8.27
2022-10-19T14:54:50.914Z,13.65
2022-10-19T14:57:39.538Z,12.25
2022-10-19T15:03:19.999Z,11.68
2022-10-19T15:06:06.438Z,9.98
2022-10-19T15:08:59.209Z,8.70
2022-10-19T15:11:46.581Z,8.95
2022-10-19T15:14:32.009Z,7.35
2022-10-19T15:17:29.765Z,7.47
2022-10-19T15:20:36.473Z,7.20
2022-10-19T15:23:31.943Z,9.82
2022-10-19T15:26:26.423Z,8.98
2022-10-19T15:29:21.798Z,10.07
2022-10-19T15:32:23.386Z,11.48
2022-10-19T15:35:21.106Z,11.50
2022-10-19T15:38:27.700Z,11.15
2022-10-19T15:41:29.768Z,11.45
2022-10-19T15:44:42.241Z,9.65
2022-10-19T15:47:27.347Z,10.27
2022-10-19T15:50:31.224Z,9.07
2022-10-19T15:53:16.344Z,8.00
2022-10-19T15:56:01.389Z,9.38
2022-10-19T15:58:51.006Z,9.10
2022-10-19T16:01:35.948Z,10.68
2022-10-19T16:04:21.122Z,10.07
2022-10-19T16:07:06.533Z,12.02
2022-10-19T16:09:51.812Z,13.95
2022-10-19T16:12:36.934Z,7.75
2022-10-19T16:15:23.255Z,7.88
2022-10-19T16:18:09.721Z,8.45
2022-10-19T16:20:54.376Z,9.88
2022-10-19T16:23:41.987Z,9.88
2022-10-19T16:26:28.177Z,10.10
2022-10-19T16:29:13.045Z,13.32
2022-10-19T16:31:58.117Z,9.85
2022-10-19T16:34:43.039Z,8.82
2022-10-19T16:37:27.753Z,9.10
2022-10-19T16:40:13.128Z,8.38
2022-10-19T16:42:59.828Z,8.20
2022-10-19T16:45:44.644Z,6.57
2022-10-19T16:48:29.446Z,5.80
2022-10-19T16:51:19.917Z,6.32
2022-10-19T16:54:06.729Z,4.70
2022-10-19T16:56:52.040Z,5.28
2022-10-19T16:59:36.786Z,5.07
2022-10-19T17:02:22.640Z,4.95
2022-10-19T17:05:07.779Z,3.42
2022-10-19T17:07:52.711Z,4.85
2022-10-19T17:10:37.890Z,4.47
2022-10-19T17:13:23.019Z,4.55
2022-10-19T17:16:08.899Z,5.82
2022-10-19T17:18:56.198Z,4.68
2022-10-19T17:21:41.774Z,3.78
2022-10-19T17:24:27.051Z,4.68
2022-10-19T17:27:12.239Z,3.70
2022-10-19T17:29:56.879Z,5.30
2022-10-19T17:32:41.722Z,4.72
2022-10-19T17:35:26.683Z,6.78
2022-10-19T17:38:11.639Z,5.65
2022-10-19T17:41:02.012Z,6.97
2022-10-19T17:43:48.223Z,7.68
2022-10-19T17:46:34.466Z,5.70
2022-10-19T17:49:19.545Z,5.68
2022-10-19T17:52:04.949Z,6.70
2022-10-19T17:55:11.045Z,5.18
2022-10-19T17:57:54.782Z,8.43
2022-10-19T18:00:39.838Z,2.33
2022-10-19T18:03:26.837Z,1.85
2022-10-19T18:06:24.159Z,1.52
2022-10-19T18:09:09.432Z,1.83
2022-10-19T18:11:54.512Z,3.53
2022-10-19T18:14:39.974Z,1.45
2022-10-19T18:17:27.695Z,2.40
2022-10-19T18:20:13.077Z,2.35
2022-10-19T18:22:57.860Z,2.70
2022-10-19T18:25:53.821Z,3.65
2022-10-19T18:28:39.958Z,1.83
2022-10-19T18:31:28.732Z,2.40
2022-10-19T18:34:15.157Z,1.98
2022-10-19T18:37:00.057Z,4.72
2022-10-19T18:39:45.004Z,3.33
2022-10-19T18:42:29.966Z,2.20
2022-10-19T18:45:15.058Z,2.17
2022-10-19T18:48:00.029Z,1.70
2022-10-19T18:50:44.970Z,5.53
2022-10-19T18:53:30.952Z,1.80
2022-10-19T18:56:17.608Z,2.38
2022-10-19T18:59:03.974Z,2.60
2022-10-19T19:01:48.764Z,3.38
2022-10-19T19:04:36.000Z,2.15
2022-10-19T19:07:20.944Z,2.17
2022-10-19T19:10:06.368Z,5.15
2022-10-19T19:12:51.376Z,1.55
2022-10-19T19:15:36.368Z,3.40
2022-10-19T19:18:22.195Z,1.75
2022-10-19T19:21:14.733Z,3.35
2022-10-19T19:24:02.441Z,2.17
2022-10-19T19:26:50.774Z,1.83
2022-10-19T19:29:35.972Z,2.97
2022-10-19T19:32:21.066Z,3.15
2022-10-19T19:35:06.369Z,2.53
2022-10-19T19:37:51.385Z,5.45
2022-10-19T19:40:44.801Z,3.53
2022-10-19T19:43:32.340Z,2.45
2022-10-19T19:46:18.622Z,3.58
2022-10-19T19:49:04.131Z,2.08
2022-10-19T19:51:49.221Z,2.15
2022-10-19T19:54:34.240Z,3.75
2022-10-19T19:57:19.465Z,4.32
2022-10-19T20:00:05.315Z,4.65
2022-10-19T20:02:58.031Z,3.03
2022-10-19T20:05:42.963Z,2.40
2022-10-19T20:08:27.869Z,4.00
2022-10-19T20:11:13.948Z,3.20
2022-10-19T20:13:58.803Z,2.60
2022-10-19T20:16:43.841Z,2.67
2022-10-19T20:19:28.849Z,1.73
2022-10-19T20:22:13.819Z,3.85
2022-10-19T20:24:58.839Z,1.67
2022-10-19T20:27:43.831Z,2.28
2022-10-19T20:30:28.672Z,3.75
2022-10-19T20:33:13.736Z,1.92
2022-10-19T20:36:10.919Z,4.38
2022-10-19T20:38:58.074Z,1.65
2022-10-19T20:41:42.727Z,1.75
2022-10-19T20:44:27.692Z,1.98
2022-10-19T20:47:12.641Z,1.38
2022-10-19T20:49:57.706Z,4.13
2022-10-19T20:52:42.589Z,2.30
2022-10-19T20:55:27.487Z,1.83
2022-10-19T20:58:12.413Z,1.30
2022-10-19T21:01:06.180Z,2.58
2022-10-19T21:03:54.018Z,2.08
2022-10-19T21:06:41.259Z,2.03
2022-10-19T21:09:26.395Z,2.35
2022-10-19T21:12:11.384Z,2.85
2022-10-19T21:14:56.353Z,2.35
2022-10-19T21:17:41.264Z,1.35
2022-10-19T21:20:27.136Z,3.78
2022-10-19T21:23:11.968Z,2.22
2022-10-19T21:25:57.688Z,1.73
2022-10-19T21:28:50.291Z,2.47
2022-10-19T21:31:37.206Z,3.55
2022-10-19T21:34:24.657Z,4.90
2022-10-19T21:37:09.585Z,1.92
2022-10-19T21:39:54.868Z,1.40
2022-10-19T21:42:39.690Z,2.55
2022-10-19T21:45:30.166Z,0.88
2022-10-19T21:48:15.359Z,2.83
2022-10-19T21:51:09.386Z,1.73
2022-10-19T21:53:54.195Z,5.43
2022-10-19T21:56:39.283Z,2.22
2022-10-19T21:59:24.611Z,4.80
2022-10-19T22:02:09.592Z,3.35
2022-10-19T22:04:54.558Z,4.45
2022-10-19T22:07:39.484Z,1.55
2022-10-19T22:10:25.013Z,2.38
2022-10-19T22:13:09.947Z,3.60
2022-10-19T22:15:55.085Z,3.72
2022-10-19T22:18:40.390Z,2.28
2022-10-19T22:21:28.623Z,8.02
2022-10-19T22:24:15.159Z,7.57
2022-10-19T22:27:00.237Z,1.67
2022-10-19T22:29:45.222Z,5.70
2022-10-19T22:32:30.066Z,1.45
2022-10-19T22:35:15.031Z,3.00
2022-10-19T22:38:00.181Z,4.10
2022-10-19T22:40:45.134Z,3.63
2022-10-19T22:43:30.242Z,2.47
2022-10-19T22:46:15.136Z,2.05
2022-10-19T22:49:00.303Z,3.20
2022-10-19T22:51:45.161Z,1.67
2022-10-19T22:54:29.908Z,2.92
2022-10-19T22:57:14.940Z,3.38
2022-10-19T22:59:59.872Z,5.32
2022-10-19T23:02:45.003Z,1.85
2022-10-19T23:05:29.937Z,3.17
2022-10-19T23:08:14.821Z,5.90
2022-10-19T23:10:59.717Z,2.38
2022-10-19T23:13:44.918Z,2.47
2022-10-19T23:16:29.942Z,2.25
2022-10-19T23:21:59.233Z,1.17
2022-10-19T23:24:44.207Z,2.63
2022-10-19T23:27:29.200Z,6.35
2022-10-19T23:30:14.054Z,3.15
2022-10-19T23:32:59.035Z,2.60
2022-10-19T23:35:44.305Z,2.17
2022-10-19T23:38:29.007Z,7.35
2022-10-19T23:41:15.162Z,3.33
2022-10-19T23:44:00.063Z,2.13
2022-10-19T23:46:45.320Z,3.90
2022-10-19T23:49:30.262Z,4.97
2022-10-19T23:52:14.983Z,3.80
2022-10-19T23:54:59.945Z,4.05
2022-10-19T23:57:45.156Z,2.20
